Terminal Aerodrome Forecast
Issued by NWS

Home | Current Version | Previous Version | Graphics & Text | Print | Product List | Glossary On
Versions: 1 2 3 4 5 6 7 8 9 10 11 12 13 14 15 16 17 18 19
000
FTUS43 KBIS 191200 AAA
TAFDIK
TAF AMD
KDIK 191222Z 1912/2012 31013KT P6SM FEW070
     FM191400 32017G26KT P6SM BKN040
     FM191600 32021G31KT P6SM VCSH SCT025 BKN050
     FM200200 32012KT P6SM SCT060=

USA.gov is the U.S. government's official web portal to all federal, state and local government web resources and services.